📊 Raw Sensor Data
Showing records 41676 to 41700 of 84,987 total
| ID | Distance (ft) | Battery V | Battery A | Int Temp (°F) | Int Humid (%) | Ext Temp (°F) | Solar V | RSSI | SNR | Time Stamp |
|---|---|---|---|---|---|---|---|---|---|---|
| 43324 | 15.5 | 3.98 | 0 | 74 | 54 | 69 | 4.50 | -71 | 8 | 06/12/2025 08:15 PM |
| 43323 | 15.5 | 4.06 | 0 | 78 | 53 | 72 | 4.50 | -71 | 7 | 06/12/2025 08:00 PM |
| 43322 | 15.5 | 4.07 | 7 | 81 | 53 | 75 | 4.50 | -71 | 8 | 06/12/2025 07:45 PM |
| 43321 | 15.6 | 4.07 | 10 | 83 | 53 | 76 | 4.50 | -70 | 8 | 06/12/2025 07:30 PM |
| 43320 | 15.6 | 4.02 | 11 | 86 | 52 | 79 | 4.50 | -71 | 7 | 06/12/2025 07:15 PM |
| 43319 | 15.6 | 4.10 | 7 | 88 | 52 | 82 | 4.60 | -71 | 7 | 06/12/2025 07:00 PM |
| 43318 | 15.6 | 4.08 | 19 | 89 | 52 | 82 | 4.50 | -71 | 7 | 06/12/2025 06:45 PM |
| 43317 | 15.6 | 4.02 | 0 | 92 | 51 | 84 | 5.10 | -71 | 7 | 06/12/2025 06:30 PM |
| 43316 | 15.6 | 4.02 | 0 | 92 | 50 | 85 | 5.10 | -70 | 8 | 06/12/2025 06:15 PM |
| 43315 | 15.6 | 4.02 | 0 | 93 | 50 | 83 | 5.10 | -71 | 8 | 06/12/2025 06:00 PM |
| 43314 | 15.6 | 4.02 | 0 | 95 | 49 | 86 | 5.10 | -71 | 7 | 06/12/2025 05:45 PM |
| 43313 | 15.6 | 4.02 | 0 | 96 | 49 | 89 | 5.10 | -73 | 8 | 06/12/2025 05:30 PM |
| 43312 | 15.6 | 4.02 | 0 | 98 | 46 | 90 | 5.10 | -71 | 8 | 06/12/2025 05:00 PM |
| 43311 | 15.6 | 4.03 | 0 | 97 | 46 | 88 | 5.10 | -71 | 8 | 06/12/2025 04:45 PM |
| 43310 | 15.6 | 4.02 | 0 | 97 | 45 | 88 | 5.10 | -70 | 8 | 06/12/2025 04:30 PM |
| 43309 | 15.6 | 4.02 | 0 | 97 | 45 | 87 | 5.10 | -71 | 7 | 06/12/2025 04:15 PM |
| 43308 | 15.6 | 4.07 | 0 | 98 | 44 | 89 | 5.10 | -71 | 7 | 06/12/2025 04:00 PM |
| 43307 | 15.6 | 4.02 | 0 | 96 | 44 | 90 | 5.10 | -71 | 8 | 06/12/2025 03:45 PM |
| 43306 | 15.6 | 4.10 | 0 | 96 | 44 | 87 | 5.10 | -70 | 8 | 06/12/2025 03:30 PM |
| 43305 | 15.6 | 4.04 | 0 | 96 | 43 | 84 | 5.10 | -70 | 8 | 06/12/2025 03:15 PM |
| 43304 | 15.7 | 4.02 | 0 | 97 | 42 | 87 | 5.10 | -70 | 8 | 06/12/2025 03:00 PM |
| 43303 | 15.6 | 4.02 | 0 | 95 | 41 | 90 | 5.10 | -70 | 8 | 06/12/2025 02:45 PM |
| 43302 | 15.6 | 4.02 | 0 | 94 | 41 | 85 | 5.10 | -70 | 8 | 06/12/2025 02:30 PM |
| 43301 | 15.6 | 4.14 | 0 | 92 | 41 | 84 | 5.10 | -72 | 7 | 06/12/2025 02:15 PM |
| 43300 | 15.6 | 4.02 | 0 | 91 | 41 | 84 | 5.10 | -73 | 8 | 06/12/2025 02:00 PM |